sensor_id;sensor_type;location;lat;lon;timestamp;pressure;altitude;pressure_sealevel;temperature;humidity
58223;BME280;44020;50.890;15.796;2023-02-20T00:04:45;98215.02;;;1.40;83.88
58223;BME280;44020;50.890;15.796;2023-02-20T00:07:18;98202.20;;;1.41;83.72
58223;BME280;44020;50.890;15.796;2023-02-20T00:19:44;98194.85;;;1.34;84.22
58223;BME280;44020;50.890;15.796;2023-02-20T00:22:56;98197.77;;;1.37;84.00
58223;BME280;44020;50.890;15.796;2023-02-20T00:25:27;98197.80;;;1.36;84.32
58223;BME280;44020;50.890;15.796;2023-02-20T00:27:57;98196.59;;;1.35;84.21
58223;BME280;44020;50.890;15.796;2023-02-20T00:30:48;98197.86;;;1.33;83.95
58223;BME280;44020;50.890;15.796;2023-02-20T00:33:30;98197.92;;;1.30;84.32
58223;BME280;44020;50.890;15.796;2023-02-20T00:36:29;98201.09;;;1.30;84.41
58223;BME280;44020;50.890;15.796;2023-02-20T00:45:52;98183.98;;;1.28;84.61
58223;BME280;44020;50.890;15.796;2023-02-20T00:48:56;98178.95;;;1.26;84.66
58223;BME280;44020;50.890;15.796;2023-02-20T00:51:24;98176.21;;;1.24;84.85
58223;BME280;44020;50.890;15.796;2023-02-20T00:54:02;98170.23;;;1.25;84.78
58223;BME280;44020;50.890;15.796;2023-02-20T00:59:47;98170.68;;;1.21;84.73
58223;BME280;44020;50.890;15.796;2023-02-20T01:02:24;98167.04;;;1.20;84.90
58223;BME280;44020;50.890;15.796;2023-02-20T01:04:54;98170.02;;;1.20;84.89
58223;BME280;44020;50.890;15.796;2023-02-20T01:17:22;98164.70;;;1.15;85.03
58223;BME280;44020;50.890;15.796;2023-02-20T01:19:51;98155.20;;;1.11;85.10
58223;BME280;44020;50.890;15.796;2023-02-20T01:22:22;98149.77;;;1.11;85.31
58223;BME280;44020;50.890;15.796;2023-02-20T01:24:52;98141.00;;;1.12;85.54
58223;BME280;44020;50.890;15.796;2023-02-20T01:27:40;98142.21;;;1.13;85.53
58223;BME280;44020;50.890;15.796;2023-02-20T01:30:08;98143.98;;;1.12;85.16
58223;BME280;44020;50.890;15.796;2023-02-20T01:32:41;98142.84;;;1.09;85.53
58223;BME280;44020;50.890;15.796;2023-02-20T01:38:20;98130.02;;;1.10;85.65
58223;BME280;44020;50.890;15.796;2023-02-20T01:40:50;98124.42;;;1.10;85.77
58223;BME280;44020;50.890;15.796;2023-02-20T01:43:20;98115.66;;;1.10;85.82
58223;BME280;44020;50.890;15.796;2023-02-20T01:56:41;98133.85;;;1.11;85.98
58223;BME280;44020;50.890;15.796;2023-02-20T01:59:25;98128.43;;;1.10;85.77
58223;BME280;44020;50.890;15.796;2023-02-20T02:02:03;98124.91;;;1.12;86.14
58223;BME280;44020;50.890;15.796;2023-02-20T02:04:33;98119.92;;;1.14;85.96
58223;BME280;44020;50.890;15.796;2023-02-20T02:07:03;98112.59;;;1.14;86.09
58223;BME280;44020;50.890;15.796;2023-02-20T02:10:45;98103.27;;;1.16;86.20
58223;BME280;44020;50.890;15.796;2023-02-20T02:29:41;98072.68;;;1.28;86.64
58223;BME280;44020;50.890;15.796;2023-02-20T02:42:28;98046.95;;;1.34;86.36
58223;BME280;44020;50.890;15.796;2023-02-20T02:49:34;98027.92;;;1.38;86.87
58223;BME280;44020;50.890;15.796;2023-02-20T02:52:13;98027.48;;;1.42;86.65
58223;BME280;44020;50.890;15.796;2023-02-20T02:55:25;98022.64;;;1.46;86.69
58223;BME280;44020;50.890;15.796;2023-02-20T03:01:59;98021.79;;;1.45;86.55
58223;BME280;44020;50.890;15.796;2023-02-20T03:04:30;98017.75;;;1.46;86.95
58223;BME280;44020;50.890;15.796;2023-02-20T03:07:31;98025.50;;;1.50;86.83
58223;BME280;44020;50.890;15.796;2023-02-20T03:33:34;98019.52;;;1.51;87.22
58223;BME280;44020;50.890;15.796;2023-02-20T03:40:46;98012.64;;;1.58;87.70
58223;BME280;44020;50.890;15.796;2023-02-20T03:51:03;98009.35;;;1.81;88.19
58223;BME280;44020;50.890;15.796;2023-02-20T04:09:03;98016.69;;;2.21;87.92
58223;BME280;44020;50.890;15.796;2023-02-20T04:11:55;98020.16;;;2.28;88.12
58223;BME280;44020;50.890;15.796;2023-02-20T04:22:06;98004.13;;;2.41;87.98
58223;BME280;44020;50.890;15.796;2023-02-20T05:12:41;97976.89;;;3.14;87.84
58223;BME280;44020;50.890;15.796;2023-02-20T05:16:11;97978.77;;;3.20;87.68
58223;BME280;44020;50.890;15.796;2023-02-20T05:29:39;97983.52;;;3.39;87.93
58223;BME280;44020;50.890;15.796;2023-02-20T05:42:53;97970.81;;;3.50;88.28
58223;BME280;44020;50.890;15.796;2023-02-20T05:45:56;97973.66;;;3.54;88.36
58223;BME280;44020;50.890;15.796;2023-02-20T05:49:53;97962.26;;;3.59;88.37
58223;BME280;44020;50.890;15.796;2023-02-20T06:03:16;97942.56;;;3.72;88.63
58223;BME280;44020;50.890;15.796;2023-02-20T06:13:25;97942.10;;;3.84;88.75
58223;BME280;44020;50.890;15.796;2023-02-20T06:20:04;97939.67;;;3.92;88.80
58223;BME280;44020;50.890;15.796;2023-02-20T06:22:34;97937.23;;;3.96;89.12
58223;BME280;44020;50.890;15.796;2023-02-20T06:25:21;97939.73;;;4.00;88.86
58223;BME280;44020;50.890;15.796;2023-02-20T06:31:29;97932.45;;;4.06;89.13
58223;BME280;44020;50.890;15.796;2023-02-20T06:37:25;97927.18;;;4.10;89.13
58223;BME280;44020;50.890;15.796;2023-02-20T06:43:14;97923.70;;;4.18;89.06
58223;BME280;44020;50.890;15.796;2023-02-20T06:46:05;97919.90;;;4.20;89.15
58223;BME280;44020;50.890;15.796;2023-02-20T06:48:53;97920.30;;;4.23;89.06
58223;BME280;44020;50.890;15.796;2023-02-20T06:51:47;97916.86;;;4.26;89.02
58223;BME280;44020;50.890;15.796;2023-02-20T06:54:27;97915.66;;;4.29;88.88
58223;BME280;44020;50.890;15.796;2023-02-20T07:00:26;97893.27;;;4.34;88.68
58223;BME280;44020;50.890;15.796;2023-02-20T07:02:53;97897.20;;;4.37;88.74
58223;BME280;44020;50.890;15.796;2023-02-20T07:05:35;97892.98;;;4.42;88.47
58223;BME280;44020;50.890;15.796;2023-02-20T07:11:42;97882.03;;;4.51;88.09
58223;BME280;44020;50.890;15.796;2023-02-20T07:14:21;97890.09;;;4.56;87.96
58223;BME280;44020;50.890;15.796;2023-02-20T07:17:09;97891.80;;;4.61;87.91
58223;BME280;44020;50.890;15.796;2023-02-20T07:20:13;97893.58;;;4.65;87.84
58223;BME280;44020;50.890;15.796;2023-02-20T07:23:12;97885.16;;;4.68;87.60
58223;BME280;44020;50.890;15.796;2023-02-20T07:25:48;97883.70;;;4.73;87.60
58223;BME280;44020;50.890;15.796;2023-02-20T07:34:58;97862.21;;;4.86;87.18
58223;BME280;44020;50.890;15.796;2023-02-20T07:41:24;97845.11;;;4.94;86.98
58223;BME280;44020;50.890;15.796;2023-02-20T07:47:11;97827.45;;;5.03;87.02
58223;BME280;44020;50.890;15.796;2023-02-20T07:50:24;97824.11;;;5.07;87.08
58223;BME280;44020;50.890;15.796;2023-02-20T07:53:16;97818.84;;;5.10;87.23
58223;BME280;44020;50.890;15.796;2023-02-20T07:55:47;97811.79;;;5.14;86.62
58223;BME280;44020;50.890;15.796;2023-02-20T07:58:42;97809.22;;;5.16;86.63
58223;BME280;44020;50.890;15.796;2023-02-20T08:01:09;97811.13;;;5.20;85.60
58223;BME280;44020;50.890;15.796;2023-02-20T08:10:44;97804.36;;;5.30;85.05
58223;BME280;44020;50.890;15.796;2023-02-20T08:13:19;97804.31;;;5.34;84.42
58223;BME280;44020;50.890;15.796;2023-02-20T08:16:20;97801.05;;;5.36;84.25
58223;BME280;44020;50.890;15.796;2023-02-20T08:19:07;97794.75;;;5.39;83.99
58223;BME280;44020;50.890;15.796;2023-02-20T08:21:37;97801.39;;;5.44;83.87
58223;BME280;44020;50.890;15.796;2023-02-20T08:28:13;97802.77;;;5.52;83.22
58223;BME280;44020;50.890;15.796;2023-02-20T08:34:58;97802.04;;;5.59;82.53
58223;BME280;44020;50.890;15.796;2023-02-20T08:38:21;97797.66;;;5.63;82.21
58223;BME280;44020;50.890;15.796;2023-02-20T08:40:39;97789.57;;;5.70;82.25
58223;BME280;44020;50.890;15.796;2023-02-20T08:53:10;97772.77;;;5.96;81.52
58223;BME280;44020;50.890;15.796;2023-02-20T08:55:37;97756.48;;;6.01;81.19
58223;BME280;44020;50.890;15.796;2023-02-20T08:58:07;97752.73;;;6.09;80.46
58223;BME280;44020;50.890;15.796;2023-02-20T09:00:55;97740.75;;;6.12;79.74
58223;BME280;44020;50.890;15.796;2023-02-20T09:06:54;97718.70;;;6.19;79.98
58223;BME280;44020;50.890;15.796;2023-02-20T09:09:32;97714.17;;;6.24;79.99
58223;BME280;44020;50.890;15.796;2023-02-20T09:12:20;97713.17;;;6.27;79.48
58223;BME280;44020;50.890;15.796;2023-02-20T09:14:48;97728.55;;;6.29;79.90
58223;BME280;44020;50.890;15.796;2023-02-20T09:17:18;97733.44;;;6.33;79.64
58223;BME280;44020;50.890;15.796;2023-02-20T09:19:48;97709.81;;;6.36;79.34
58223;BME280;44020;50.890;15.796;2023-02-20T09:22:49;97722.47;;;6.40;79.02
58223;BME280;44020;50.890;15.796;2023-02-20T09:25:39;97707.13;;;6.44;79.08
58223;BME280;44020;50.890;15.796;2023-02-20T09:31:24;97702.40;;;6.53;78.59
58223;BME280;44020;50.890;15.796;2023-02-20T09:34:19;97698.50;;;6.56;78.38
58223;BME280;44020;50.890;15.796;2023-02-20T09:40:53;97704.30;;;6.67;78.63
58223;BME280;44020;50.890;15.796;2023-02-20T10:05:53;97641.33;;;6.97;76.41
58223;BME280;44020;50.890;15.796;2023-02-20T10:08:22;97639.29;;;6.99;76.61
58223;BME280;44020;50.890;15.796;2023-02-20T10:20:53;97615.16;;;7.10;74.82
58223;BME280;44020;50.890;15.796;2023-02-20T10:24:41;97611.73;;;7.11;75.04
58223;BME280;44020;50.890;15.796;2023-02-20T10:34:03;97578.44;;;7.28;74.51
58223;BME280;44020;50.890;15.796;2023-02-20T10:36:59;97566.98;;;7.34;74.56
58223;BME280;44020;50.890;15.796;2023-02-20T10:39:27;97581.13;;;7.39;74.36
58223;BME280;44020;50.890;15.796;2023-02-20T10:42:58;97569.13;;;7.45;74.15
58223;BME280;44020;50.890;15.796;2023-02-20T10:45:30;97572.23;;;7.52;73.46
58223;BME280;44020;50.890;15.796;2023-02-20T10:48:55;97566.10;;;7.54;73.42
58223;BME280;44020;50.890;15.796;2023-02-20T11:02:14;97564.79;;;7.70;72.53
58223;BME280;44020;50.890;15.796;2023-02-20T11:04:47;97560.13;;;7.71;72.10
58223;BME280;44020;50.890;15.796;2023-02-20T11:11:52;97567.64;;;7.84;72.10
58223;BME280;44020;50.890;15.796;2023-02-20T11:23:48;97544.04;;;8.05;71.59
58223;BME280;44020;50.890;15.796;2023-02-20T11:36:44;97538.00;;;8.08;70.78
58223;BME280;44020;50.890;15.796;2023-02-20T11:42:39;97515.48;;;8.11;70.27
58223;BME280;44020;50.890;15.796;2023-02-20T11:45:43;97509.17;;;8.08;70.38
58223;BME280;44020;50.890;15.796;2023-02-20T11:48:19;97514.02;;;8.09;70.11
58223;BME280;44020;50.890;15.796;2023-02-20T11:54:44;97508.95;;;8.14;69.72
58223;BME280;44020;50.890;15.796;2023-02-20T12:01:03;97487.82;;;8.16;69.51
58223;BME280;44020;50.890;15.796;2023-02-20T12:03:54;97481.13;;;8.18;69.31
58223;BME280;44020;50.890;15.796;2023-02-20T12:06:41;97460.40;;;8.19;69.69
58223;BME280;44020;50.890;15.796;2023-02-20T12:09:37;97454.89;;;8.24;69.57
58223;BME280;44020;50.890;15.796;2023-02-20T12:12:34;97439.98;;;8.30;69.74
58223;BME280;44020;50.890;15.796;2023-02-20T12:28:16;97401.55;;;8.91;69.00
58223;BME280;44020;50.890;15.796;2023-02-20T12:30:56;97388.25;;;9.02;69.18
58223;BME280;44020;50.890;15.796;2023-02-20T12:37:23;97371.86;;;9.21;67.75
58223;BME280;44020;50.890;15.796;2023-02-20T13:05:31;97302.33;;;11.16;59.53
58223;BME280;44020;50.890;15.796;2023-02-20T13:08:14;97299.36;;;11.24;58.59
58223;BME280;44020;50.890;15.796;2023-02-20T13:11:03;97302.09;;;11.21;58.16
58223;BME280;44020;50.890;15.796;2023-02-20T13:23:28;97292.75;;;11.23;57.73
58223;BME280;44020;50.890;15.796;2023-02-20T13:29:34;97277.98;;;11.25;58.67
58223;BME280;44020;50.890;15.796;2023-02-20T13:38:18;97254.02;;;11.71;57.93
58223;BME280;44020;50.890;15.796;2023-02-20T13:43:49;97257.79;;;11.83;57.36
58223;BME280;44020;50.890;15.796;2023-02-20T13:46:19;97250.88;;;11.61;57.89
58223;BME280;44020;50.890;15.796;2023-02-20T13:48:52;97242.75;;;11.60;58.39
58223;BME280;44020;50.890;15.796;2023-02-20T13:54:22;97247.65;;;11.46;58.72
58223;BME280;44020;50.890;15.796;2023-02-20T13:56:56;97243.00;;;11.44;59.10
58223;BME280;44020;50.890;15.796;2023-02-20T13:59:27;97236.20;;;11.64;58.98
58223;BME280;44020;50.890;15.796;2023-02-20T14:02:23;97238.16;;;11.84;58.42
58223;BME280;44020;50.890;15.796;2023-02-20T14:05:28;97226.65;;;11.96;58.30
58223;BME280;44020;50.890;15.796;2023-02-20T14:07:57;97216.77;;;12.14;58.78
58223;BME280;44020;50.890;15.796;2023-02-20T14:13:01;97211.38;;;12.67;58.44
58223;BME280;44020;50.890;15.796;2023-02-20T14:15:31;97205.75;;;13.03;57.53
58223;BME280;44020;50.890;15.796;2023-02-20T14:18:02;97196.55;;;13.18;57.09
58223;BME280;44020;50.890;15.796;2023-02-20T14:20:35;97201.17;;;13.04;56.88
58223;BME280;44020;50.890;15.796;2023-02-20T14:23:06;97204.02;;;12.88;57.10
58223;BME280;44020;50.890;15.796;2023-02-20T14:25:42;97198.56;;;12.69;57.08
58223;BME280;44020;50.890;15.796;2023-02-20T14:28:18;97202.14;;;12.58;57.10
58223;BME280;44020;50.890;15.796;2023-02-20T14:31:25;97200.21;;;12.44;56.96
58223;BME280;44020;50.890;15.796;2023-02-20T14:34:07;97196.76;;;12.21;57.33
58223;BME280;44020;50.890;15.796;2023-02-20T14:37:23;97196.60;;;12.00;57.87
58223;BME280;44020;50.890;15.796;2023-02-20T14:40:37;97199.77;;;11.83;58.34
58223;BME280;44020;50.890;15.796;2023-02-20T14:43:29;97200.02;;;11.67;58.61
58223;BME280;44020;50.890;15.796;2023-02-20T14:46:03;97196.83;;;11.56;58.76
58223;BME280;44020;50.890;15.796;2023-02-20T14:49:09;97200.55;;;11.48;59.10
58223;BME280;44020;50.890;15.796;2023-02-20T14:51:37;97199.60;;;11.37;59.62
58223;BME280;44020;50.890;15.796;2023-02-20T14:54:20;97211.86;;;11.31;59.53
58223;BME280;44020;50.890;15.796;2023-02-20T14:56:49;97209.96;;;11.24;59.81
58223;BME280;44020;50.890;15.796;2023-02-20T14:59:34;97212.69;;;11.17;60.16
58223;BME280;44020;50.890;15.796;2023-02-20T15:05:07;97211.65;;;11.07;60.35
58223;BME280;44020;50.890;15.796;2023-02-20T15:07:40;97219.77;;;11.01;60.73
58223;BME280;44020;50.890;15.796;2023-02-20T15:10:36;97225.66;;;11.01;60.80
58223;BME280;44020;50.890;15.796;2023-02-20T15:13:26;97222.16;;;10.96;61.12
58223;BME280;44020;50.890;15.796;2023-02-20T15:16:27;97234.34;;;10.95;61.21
58223;BME280;44020;50.890;15.796;2023-02-20T15:19:32;97242.50;;;10.90;61.40
58223;BME280;44020;50.890;15.796;2023-02-20T15:22:21;97252.16;;;10.85;61.27
58223;BME280;44020;50.890;15.796;2023-02-20T15:25:29;97262.73;;;10.79;61.44
58223;BME280;44020;50.890;15.796;2023-02-20T15:34:55;97250.13;;;10.63;62.04
58223;BME280;44020;50.890;15.796;2023-02-20T15:37:27;97243.02;;;10.61;62.07
58223;BME280;44020;50.890;15.796;2023-02-20T15:40:06;97241.50;;;10.60;62.19
58223;BME280;44020;50.890;15.796;2023-02-20T15:42:35;97242.61;;;10.57;62.46
58223;BME280;44020;50.890;15.796;2023-02-20T15:45:03;97234.11;;;10.57;62.52
58223;BME280;44020;50.890;15.796;2023-02-20T15:47:33;97238.39;;;10.57;62.72
58223;BME280;44020;50.890;15.796;2023-02-20T15:50:04;97229.52;;;10.56;62.88
58223;BME280;44020;50.890;15.796;2023-02-20T15:55:38;97241.59;;;10.54;63.35
58223;BME280;44020;50.890;15.796;2023-02-20T15:58:35;97246.14;;;10.53;63.27
58223;BME280;44020;50.890;15.796;2023-02-20T16:01:05;97243.02;;;10.50;63.39
58223;BME280;44020;50.890;15.796;2023-02-20T16:07:00;97242.09;;;10.41;63.77
58223;BME280;44020;50.890;15.796;2023-02-20T16:09:30;97240.04;;;10.38;63.91
58223;BME280;44020;50.890;15.796;2023-02-20T16:11:58;97245.88;;;10.38;63.97
58223;BME280;44020;50.890;15.796;2023-02-20T16:14:34;97241.87;;;10.35;64.16
58223;BME280;44020;50.890;15.796;2023-02-20T16:17:02;97252.48;;;10.33;64.34
58223;BME280;44020;50.890;15.796;2023-02-20T16:19:29;97253.67;;;10.31;64.38
58223;BME280;44020;50.890;15.796;2023-02-20T16:21:56;97259.13;;;10.30;64.42
58223;BME280;44020;50.890;15.796;2023-02-20T16:24:24;97259.94;;;10.28;64.64
58223;BME280;44020;50.890;15.796;2023-02-20T16:29:49;97268.36;;;10.22;64.95
58223;BME280;44020;50.890;15.796;2023-02-20T16:35:37;97269.52;;;10.18;65.43
58223;BME280;44020;50.890;15.796;2023-02-20T16:38:09;97268.71;;;10.17;65.50
58223;BME280;44020;50.890;15.796;2023-02-20T16:40:57;97273.29;;;10.18;65.68
58223;BME280;44020;50.890;15.796;2023-02-20T16:44:11;97280.33;;;10.21;65.91
58223;BME280;44020;50.890;15.796;2023-02-20T16:49:47;97279.25;;;10.26;66.17
58223;BME280;44020;50.890;15.796;2023-02-20T16:54:59;97293.44;;;10.31;66.19
58223;BME280;44020;50.890;15.796;2023-02-20T16:57:28;97301.16;;;10.33;66.15
58223;BME280;44020;50.890;15.796;2023-02-20T16:59:58;97300.73;;;10.34;66.24
58223;BME280;44020;50.890;15.796;2023-02-20T17:02:30;97302.23;;;10.35;66.22
58223;BME280;44020;50.890;15.796;2023-02-20T17:05:09;97303.27;;;10.35;66.22
58223;BME280;44020;50.890;15.796;2023-02-20T17:07:37;97311.41;;;10.35;66.13
58223;BME280;44020;50.890;15.796;2023-02-20T17:10:08;97320.34;;;10.35;66.37
58223;BME280;44020;50.890;15.796;2023-02-20T17:12:39;97329.96;;;10.34;66.44
58223;BME280;44020;50.890;15.796;2023-02-20T17:15:07;97337.98;;;10.34;66.40
58223;BME280;44020;50.890;15.796;2023-02-20T17:17:34;97344.55;;;10.34;66.47
58223;BME280;44020;50.890;15.796;2023-02-20T17:20:05;97349.90;;;10.31;66.44
58223;BME280;44020;50.890;15.796;2023-02-20T17:22:32;97352.80;;;10.28;66.53
58223;BME280;44020;50.890;15.796;2023-02-20T17:25:01;97343.23;;;10.25;66.66
58223;BME280;44020;50.890;15.796;2023-02-20T17:27:32;97350.61;;;10.24;66.98
58223;BME280;44020;50.890;15.796;2023-02-20T17:30:00;97349.70;;;10.21;66.90
58223;BME280;44020;50.890;15.796;2023-02-20T17:32:32;97353.03;;;10.20;66.97
58223;BME280;44020;50.890;15.796;2023-02-20T17:35:03;97355.20;;;10.19;67.01
58223;BME280;44020;50.890;15.796;2023-02-20T17:37:51;97355.35;;;10.17;67.21
58223;BME280;44020;50.890;15.796;2023-02-20T17:40:39;97356.61;;;10.14;67.66
58223;BME280;44020;50.890;15.796;2023-02-20T17:43:07;97343.94;;;10.09;67.50
58223;BME280;44020;50.890;15.796;2023-02-20T17:45:34;97346.25;;;10.06;67.98
58223;BME280;44020;50.890;15.796;2023-02-20T17:48:04;97342.71;;;10.06;67.98
58223;BME280;44020;50.890;15.796;2023-02-20T17:50:35;97340.98;;;10.05;68.08
58223;BME280;44020;50.890;15.796;2023-02-20T17:53:06;97329.89;;;10.04;68.24
58223;BME280;44020;50.890;15.796;2023-02-20T17:55:36;97333.27;;;10.01;68.43
58223;BME280;44020;50.890;15.796;2023-02-20T18:01:29;97323.51;;;9.97;68.89
58223;BME280;44020;50.890;15.796;2023-02-20T18:03:59;97318.54;;;9.97;68.82
58223;BME280;44020;50.890;15.796;2023-02-20T18:06:37;97319.52;;;9.93;68.85
58223;BME280;44020;50.890;15.796;2023-02-20T18:09:06;97311.39;;;9.92;69.01
58223;BME280;44020;50.890;15.796;2023-02-20T18:11:35;97305.84;;;9.91;69.00
58223;BME280;44020;50.890;15.796;2023-02-20T18:14:04;97300.33;;;9.89;69.03
58223;BME280;44020;50.890;15.796;2023-02-20T18:16:35;97298.10;;;9.88;69.34
58223;BME280;44020;50.890;15.796;2023-02-20T18:19:05;97301.41;;;9.86;69.13
58223;BME280;44020;50.890;15.796;2023-02-20T18:21:40;97304.04;;;9.87;69.18
58223;BME280;44020;50.890;15.796;2023-02-20T18:24:12;97308.92;;;9.85;69.19
58223;BME280;44020;50.890;15.796;2023-02-20T18:26:40;97309.98;;;9.85;69.24
58223;BME280;44020;50.890;15.796;2023-02-20T18:29:28;97309.20;;;9.84;69.30
58223;BME280;44020;50.890;15.796;2023-02-20T18:32:09;97310.44;;;9.84;69.32
58223;BME280;44020;50.890;15.796;2023-02-20T18:34:37;97312.25;;;9.83;69.33
58223;BME280;44020;50.890;15.796;2023-02-20T18:37:04;97311.70;;;9.81;69.32
58223;BME280;44020;50.890;15.796;2023-02-20T18:39:32;97311.88;;;9.81;69.37
58223;BME280;44020;50.890;15.796;2023-02-20T18:42:00;97312.24;;;9.78;69.60
58223;BME280;44020;50.890;15.796;2023-02-20T18:44:29;97303.14;;;9.74;69.70
58223;BME280;44020;50.890;15.796;2023-02-20T18:47:01;97305.38;;;9.70;70.04
58223;BME280;44020;50.890;15.796;2023-02-20T18:49:34;97301.51;;;9.65;70.34
58223;BME280;44020;50.890;15.796;2023-02-20T18:52:18;97311.07;;;9.63;70.67
58223;BME280;44020;50.890;15.796;2023-02-20T18:54:49;97306.08;;;9.56;71.06
58223;BME280;44020;50.890;15.796;2023-02-20T18:57:37;97301.33;;;9.51;71.63
58223;BME280;44020;50.890;15.796;2023-02-20T19:00:26;97303.34;;;9.42;72.18
58223;BME280;44020;50.890;15.796;2023-02-20T19:02:56;97302.79;;;9.35;72.63
58223;BME280;44020;50.890;15.796;2023-02-20T19:05:35;97310.19;;;9.28;72.77
58223;BME280;44020;50.890;15.796;2023-02-20T19:08:26;97309.27;;;9.19;73.18
58223;BME280;44020;50.890;15.796;2023-02-20T19:10:54;97315.67;;;9.09;73.72
58223;BME280;44020;50.890;15.796;2023-02-20T19:13:29;97321.70;;;8.96;74.29
58223;BME280;44020;50.890;15.796;2023-02-20T19:16:29;97320.05;;;8.82;74.74
58223;BME280;44020;50.890;15.796;2023-02-20T19:18:59;97317.59;;;8.71;74.90
58223;BME280;44020;50.890;15.796;2023-02-20T19:28:10;97318.12;;;8.50;76.60
58223;BME280;44020;50.890;15.796;2023-02-20T19:30:43;97317.95;;;8.45;76.68
58223;BME280;44020;50.890;15.796;2023-02-20T19:33:20;97322.13;;;8.40;76.92
58223;BME280;44020;50.890;15.796;2023-02-20T19:38:49;97330.23;;;8.33;77.60
58223;BME280;44020;50.890;15.796;2023-02-20T19:41:56;97325.80;;;8.25;77.75
58223;BME280;44020;50.890;15.796;2023-02-20T19:44:46;97328.90;;;8.21;78.28
58223;BME280;44020;50.890;15.796;2023-02-20T19:47:19;97330.36;;;8.18;78.40
58223;BME280;44020;50.890;15.796;2023-02-20T19:50:20;97337.33;;;8.14;78.79
58223;BME280;44020;50.890;15.796;2023-02-20T19:55:44;97338.98;;;8.10;79.26
58223;BME280;44020;50.890;15.796;2023-02-20T19:58:11;97337.50;;;8.09;79.65
58223;BME280;44020;50.890;15.796;2023-02-20T20:00:39;97338.25;;;8.08;79.86
58223;BME280;44020;50.890;15.796;2023-02-20T20:03:10;97341.70;;;8.07;80.02
58223;BME280;44020;50.890;15.796;2023-02-20T20:05:58;97336.57;;;8.04;79.81
58223;BME280;44020;50.890;15.796;2023-02-20T20:11:49;97333.59;;;8.04;79.65
58223;BME280;44020;50.890;15.796;2023-02-20T20:14:33;97335.48;;;8.02;79.64
58223;BME280;44020;50.890;15.796;2023-02-20T20:17:13;97336.78;;;8.04;79.93
58223;BME280;44020;50.890;15.796;2023-02-20T20:20:01;97340.55;;;8.03;79.77
58223;BME280;44020;50.890;15.796;2023-02-20T20:22:43;97340.04;;;8.02;79.73
58223;BME280;44020;50.890;15.796;2023-02-20T20:25:44;97339.73;;;8.02;79.50
58223;BME280;44020;50.890;15.796;2023-02-20T20:32:02;97342.73;;;8.07;79.50
58223;BME280;44020;50.890;15.796;2023-02-20T20:35:13;97342.39;;;8.10;79.31
58223;BME280;44020;50.890;15.796;2023-02-20T20:38:15;97339.09;;;8.11;78.87
58223;BME280;44020;50.890;15.796;2023-02-20T20:44:13;97327.52;;;8.18;78.12
58223;BME280;44020;50.890;15.796;2023-02-20T20:47:22;97319.02;;;8.21;77.73
58223;BME280;44020;50.890;15.796;2023-02-20T20:56:53;97309.27;;;8.37;75.72
58223;BME280;44020;50.890;15.796;2023-02-20T20:59:34;97313.68;;;8.40;75.39
58223;BME280;44020;50.890;15.796;2023-02-20T21:12:41;97291.09;;;8.54;73.88
58223;BME280;44020;50.890;15.796;2023-02-20T21:18:59;97296.52;;;8.55;73.50
58223;BME280;44020;50.890;15.796;2023-02-20T21:25:04;97291.31;;;8.57;72.86
58223;BME280;44020;50.890;15.796;2023-02-20T21:27:51;97299.27;;;8.56;72.90
58223;BME280;44020;50.890;15.796;2023-02-20T21:30:24;97293.23;;;8.60;72.59
58223;BME280;44020;50.890;15.796;2023-02-20T21:33:00;97292.45;;;8.58;72.64
58223;BME280;44020;50.890;15.796;2023-02-20T21:35:31;97296.52;;;8.58;72.68
58223;BME280;44020;50.890;15.796;2023-02-20T21:40:43;97282.43;;;8.57;72.89
58223;BME280;44020;50.890;15.796;2023-02-20T21:43:38;97285.65;;;8.56;72.98
58223;BME280;44020;50.890;15.796;2023-02-20T21:46:54;97270.55;;;8.54;73.17
58223;BME280;44020;50.890;15.796;2023-02-20T21:52:55;97271.76;;;8.55;73.25
58223;BME280;44020;50.890;15.796;2023-02-20T21:58:48;97275.95;;;8.56;73.24
58223;BME280;44020;50.890;15.796;2023-02-20T22:01:57;97278.16;;;8.58;73.25
58223;BME280;44020;50.890;15.796;2023-02-20T22:04:40;97273.31;;;8.56;73.45
58223;BME280;44020;50.890;15.796;2023-02-20T22:07:07;97275.58;;;8.56;73.34
58223;BME280;44020;50.890;15.796;2023-02-20T22:09:58;97279.11;;;8.56;73.37
58223;BME280;44020;50.890;15.796;2023-02-20T22:16:22;97277.80;;;8.57;73.44
58223;BME280;44020;50.890;15.796;2023-02-20T22:19:18;97270.99;;;8.59;73.47
58223;BME280;44020;50.890;15.796;2023-02-20T22:22:25;97270.05;;;8.57;73.48
58223;BME280;44020;50.890;15.796;2023-02-20T22:31:48;97249.15;;;8.57;73.80
58223;BME280;44020;50.890;15.796;2023-02-20T22:34:54;97247.23;;;8.56;73.94
58223;BME280;44020;50.890;15.796;2023-02-20T22:38:00;97244.37;;;8.57;74.14
58223;BME280;44020;50.890;15.796;2023-02-20T22:40:47;97247.23;;;8.56;74.32
58223;BME280;44020;50.890;15.796;2023-02-20T22:43:54;97242.13;;;8.55;74.26
58223;BME280;44020;50.890;15.796;2023-02-20T22:46:43;97247.67;;;8.58;74.39
58223;BME280;44020;50.890;15.796;2023-02-20T22:50:11;97246.77;;;8.58;74.47
58223;BME280;44020;50.890;15.796;2023-02-20T22:53:40;97248.38;;;8.58;74.61
58223;BME280;44020;50.890;15.796;2023-02-20T22:56:38;97246.53;;;8.56;74.74
58223;BME280;44020;50.890;15.796;2023-02-20T22:59:24;97248.09;;;8.57;74.80
58223;BME280;44020;50.890;15.796;2023-02-20T23:02:11;97254.10;;;8.57;74.97
58223;BME280;44020;50.890;15.796;2023-02-20T23:04:57;97248.45;;;8.57;74.85
58223;BME280;44020;50.890;15.796;2023-02-20T23:08:15;97252.17;;;8.57;75.02
58223;BME280;44020;50.890;15.796;2023-02-20T23:11:04;97255.50;;;8.57;75.40
58223;BME280;44020;50.890;15.796;2023-02-20T23:14:31;97248.45;;;8.57;75.57
58223;BME280;44020;50.890;15.796;2023-02-20T23:17:21;97252.30;;;8.52;75.86
58223;BME280;44020;50.890;15.796;2023-02-20T23:20:16;97244.45;;;8.50;75.76
58223;BME280;44020;50.890;15.796;2023-02-20T23:23:07;97250.59;;;8.51;76.02
58223;BME280;44020;50.890;15.796;2023-02-20T23:25:53;97249.55;;;8.51;76.13